Terminal Aerodrome Forecast
Issued by NWS Louisville, KY

Home | Current Version | Previous Version | Text Only | Print | Product List | Glossary On
Versions: 1 2 3 4 5 6 7 8 9 10 11 12 13 14 15 16 17 18 19 20 21 22 23
000
FTUS43 KLMK 270900 AAB
TAFLEX
TAF AMD
KLEX 270919Z 2709/2806 20007KT 4SM BR FEW009 BKN010
      TEMPO 2709/2713 BKN009
     FM271500 21010KT P6SM SCT015 SCT250
     FM272100 22011G18KT P6SM VCTS BKN050CB
     FM280200 21005KT P6SM BKN100=

USA.gov is the U.S. government's official web portal to all federal, state and local government web resources and services.